Rochelle, Texas
Current Conditions -  °F | °C
As of 9:35 AM on Thursday 18 Dec 2014 (Local Time) from KBBD Reporting Station
Light Rain Light Rain  
Wind Chill: 50°   Ceiling: 100
Heat Index: 50°   Visibility: 0mi
Dew Point: 50°   Wind: 5mph
Humidity: 100%   Direction: 260°W
Pressure: 30.13"   Gusts: NA
Location:  31.22°N, 99.21°W
Report Text: KBBD 181535Z AUTO 26004KT M1/4SM -RA FG OVC001 10/10 A3013 RMK
Loading
Personal Weather Stations






























Interactive Weather Map New forecast layout! Learn more

10-Day Weather Forecast

Advertisements
Track Severe Weather on mobile